sensor_id;sensor_type;location;lat;lon;timestamp;pressure;altitude;pressure_sealevel;temperature;humidity
24620;BME280;12763;55.802;37.404;2023-11-19T00:02:23;100377.31;;;-3.38;94.51
24620;BME280;12763;55.802;37.404;2023-11-19T00:04:49;100381.63;;;-3.23;94.02
24620;BME280;12763;55.802;37.404;2023-11-19T00:07:15;100378.59;;;-3.31;93.50
24620;BME280;12763;55.802;37.404;2023-11-19T00:09:41;100368.22;;;-3.25;92.58
24620;BME280;12763;55.802;37.404;2023-11-19T00:12:09;100372.44;;;-3.33;92.42
24620;BME280;12763;55.802;37.404;2023-11-19T00:14:35;100372.34;;;-3.32;91.88
24620;BME280;12763;55.802;37.404;2023-11-19T00:17:01;100372.44;;;-3.33;92.41
24620;BME280;12763;55.802;37.404;2023-11-19T00:19:27;100372.66;;;-3.36;92.65
24620;BME280;12763;55.802;37.404;2023-11-19T00:21:53;100365.78;;;-3.40;92.99
24620;BME280;12763;55.802;37.404;2023-11-19T00:24:19;100369.75;;;-3.33;92.33
24620;BME280;12763;55.802;37.404;2023-11-19T00:26:46;100369.53;;;-3.30;91.99
24620;BME280;12763;55.802;37.404;2023-11-19T00:29:13;100368.69;;;-3.43;92.36
24620;BME280;12763;55.802;37.404;2023-11-19T00:31:40;100370.34;;;-3.53;92.73
24620;BME280;12763;55.802;37.404;2023-11-19T00:34:06;100365.56;;;-3.50;92.92
24620;BME280;12763;55.802;37.404;2023-11-19T00:36:32;100367.69;;;-3.42;92.66
24620;BME280;12763;55.802;37.404;2023-11-19T00:38:58;100358.97;;;-3.46;93.13
24620;BME280;12763;55.802;37.404;2023-11-19T00:41:24;100358.56;;;-3.52;93.50
24620;BME280;12763;55.802;37.404;2023-11-19T00:43:51;100353.72;;;-3.60;93.60
24620;BME280;12763;55.802;37.404;2023-11-19T00:46:18;100349.06;;;-3.58;93.88
24620;BME280;12763;55.802;37.404;2023-11-19T00:48:44;100349.81;;;-3.43;92.75
24620;BME280;12763;55.802;37.404;2023-11-19T00:51:11;100353.16;;;-3.52;93.60
24620;BME280;12763;55.802;37.404;2023-11-19T00:53:38;100350.88;;;-3.46;93.41
24620;BME280;12763;55.802;37.404;2023-11-19T00:56:04;100348.06;;;-3.44;92.84
24620;BME280;12763;55.802;37.404;2023-11-19T00:58:30;100352.50;;;-3.43;93.19
24620;BME280;12763;55.802;37.404;2023-11-19T01:00:56;100344.41;;;-3.43;92.84
24620;BME280;12763;55.802;37.404;2023-11-19T01:03:23;100340.72;;;-3.42;92.24
24620;BME280;12763;55.802;37.404;2023-11-19T01:05:49;100333.63;;;-3.43;92.50
24620;BME280;12763;55.802;37.404;2023-11-19T01:08:16;100334.03;;;-3.49;93.09
24620;BME280;12763;55.802;37.404;2023-11-19T01:10:42;100329.16;;;-3.44;92.87
24620;BME280;12763;55.802;37.404;2023-11-19T01:13:07;100323.03;;;-3.46;92.51
24620;BME280;12763;55.802;37.404;2023-11-19T01:15:34;100325.50;;;-3.43;92.51
24620;BME280;12763;55.802;37.404;2023-11-19T01:18:00;100328.66;;;-3.49;92.11
24620;BME280;12763;55.802;37.404;2023-11-19T01:20:28;100318.97;;;-3.65;92.77
24620;BME280;12763;55.802;37.404;2023-11-19T01:22:54;100328.13;;;-3.54;93.22
24620;BME280;12763;55.802;37.404;2023-11-19T01:25:20;100329.31;;;-3.46;92.52
24620;BME280;12763;55.802;37.404;2023-11-19T01:27:46;100320.00;;;-3.42;92.04
24620;BME280;12763;55.802;37.404;2023-11-19T01:30:13;100310.94;;;-3.41;92.30
24620;BME280;12763;55.802;37.404;2023-11-19T01:32:42;100311.81;;;-3.40;92.91
24620;BME280;12763;55.802;37.404;2023-11-19T01:35:08;100313.31;;;-3.49;92.77
24620;BME280;12763;55.802;37.404;2023-11-19T01:37:35;100318.28;;;-3.43;92.66
24620;BME280;12763;55.802;37.404;2023-11-19T01:40:02;100314.72;;;-3.43;92.72
24620;BME280;12763;55.802;37.404;2023-11-19T01:42:36;100308.09;;;-3.39;93.04
24620;BME280;12763;55.802;37.404;2023-11-19T01:45:04;100312.88;;;-3.43;92.67
24620;BME280;12763;55.802;37.404;2023-11-19T01:47:32;100306.97;;;-3.48;92.79
24620;BME280;12763;55.802;37.404;2023-11-19T01:49:59;100300.88;;;-3.39;92.88
24620;BME280;12763;55.802;37.404;2023-11-19T01:52:25;100304.00;;;-3.32;93.00
24620;BME280;12763;55.802;37.404;2023-11-19T01:54:53;100306.25;;;-3.26;93.22
24620;BME280;12763;55.802;37.404;2023-11-19T01:57:22;100301.38;;;-3.21;92.55
24620;BME280;12763;55.802;37.404;2023-11-19T01:59:50;100300.38;;;-3.20;93.36
24620;BME280;12763;55.802;37.404;2023-11-19T02:02:17;100295.63;;;-3.17;92.83
24620;BME280;12763;55.802;37.404;2023-11-19T02:04:49;100292.47;;;-3.11;92.68
24620;BME280;12763;55.802;37.404;2023-11-19T02:07:15;100286.09;;;-3.10;92.88
24620;BME280;12763;55.802;37.404;2023-11-19T02:09:43;100297.53;;;-3.06;92.33
24620;BME280;12763;55.802;37.404;2023-11-19T02:12:10;100298.91;;;-3.01;92.75
24620;BME280;12763;55.802;37.404;2023-11-19T02:14:41;100299.53;;;-2.97;92.17
24620;BME280;12763;55.802;37.404;2023-11-19T02:17:25;100287.59;;;-2.82;92.51
24620;BME280;12763;55.802;37.404;2023-11-19T02:19:52;100292.00;;;-2.81;92.23
24620;BME280;12763;55.802;37.404;2023-11-19T02:22:17;100288.59;;;-2.72;92.28
24620;BME280;12763;55.802;37.404;2023-11-19T02:24:44;100291.72;;;-2.65;91.76
24620;BME280;12763;55.802;37.404;2023-11-19T02:30:08;100297.25;;;-2.56;91.37
24620;BME280;12763;55.802;37.404;2023-11-19T02:32:34;100298.78;;;-2.52;91.00
24620;BME280;12763;55.802;37.404;2023-11-19T02:35:01;100287.47;;;-2.46;90.26
24620;BME280;12763;55.802;37.404;2023-11-19T02:37:28;100285.63;;;-2.45;90.32
24620;BME280;12763;55.802;37.404;2023-11-19T02:39:54;100288.00;;;-2.41;89.69
24620;BME280;12763;55.802;37.404;2023-11-19T02:42:20;100279.97;;;-2.42;89.05
24620;BME280;12763;55.802;37.404;2023-11-19T02:44:46;100283.06;;;-2.47;89.05
24620;BME280;12763;55.802;37.404;2023-11-19T02:47:12;100278.63;;;-2.48;88.94
24620;BME280;12763;55.802;37.404;2023-11-19T02:49:37;100281.09;;;-2.45;89.03
24620;BME280;12763;55.802;37.404;2023-11-19T02:52:04;100273.59;;;-2.41;89.05
24620;BME280;12763;55.802;37.404;2023-11-19T02:54:36;100277.78;;;-2.37;89.09
24620;BME280;12763;55.802;37.404;2023-11-19T02:57:02;100280.38;;;-2.35;89.21
24620;BME280;12763;55.802;37.404;2023-11-19T02:59:30;100268.56;;;-2.34;88.88
24620;BME280;12763;55.802;37.404;2023-11-19T03:02:08;100270.56;;;-2.25;88.08
24620;BME280;12763;55.802;37.404;2023-11-19T03:04:38;100274.13;;;-2.25;87.90
24620;BME280;12763;55.802;37.404;2023-11-19T03:07:08;100266.66;;;-2.21;87.89
24620;BME280;12763;55.802;37.404;2023-11-19T03:09:34;100259.50;;;-2.22;87.15
24620;BME280;12763;55.802;37.404;2023-11-19T03:12:01;100274.13;;;-2.25;87.42
24620;BME280;12763;55.802;37.404;2023-11-19T03:14:27;100267.84;;;-2.37;86.71
24620;BME280;12763;55.802;37.404;2023-11-19T03:16:53;100267.47;;;-2.43;87.43
24620;BME280;12763;55.802;37.404;2023-11-19T03:19:19;100272.00;;;-2.44;87.67
24620;BME280;12763;55.802;37.404;2023-11-19T03:21:45;100278.16;;;-2.42;87.37
24620;BME280;12763;55.802;37.404;2023-11-19T03:24:13;100270.03;;;-2.42;87.33
24620;BME280;12763;55.802;37.404;2023-11-19T03:26:39;100268.31;;;-2.43;86.90
24620;BME280;12763;55.802;37.404;2023-11-19T03:29:05;100264.22;;;-2.48;87.33
24620;BME280;12763;55.802;37.404;2023-11-19T03:31:31;100261.78;;;-2.40;87.09
24620;BME280;12763;55.802;37.404;2023-11-19T03:33:56;100262.91;;;-2.43;87.43
24620;BME280;12763;55.802;37.404;2023-11-19T03:36:22;100251.38;;;-2.33;87.39
24620;BME280;12763;55.802;37.404;2023-11-19T03:38:49;100264.41;;;-2.39;86.90
24620;BME280;12763;55.802;37.404;2023-11-19T03:41:15;100257.25;;;-2.40;87.12
24620;BME280;12763;55.802;37.404;2023-11-19T03:43:42;100257.41;;;-2.30;86.79
24620;BME280;12763;55.802;37.404;2023-11-19T03:46:21;100248.81;;;-2.24;86.54
24620;BME280;12763;55.802;37.404;2023-11-19T03:48:48;100244.38;;;-2.25;85.76
24620;BME280;12763;55.802;37.404;2023-11-19T03:51:14;100232.44;;;-2.33;85.44
24620;BME280;12763;55.802;37.404;2023-11-19T03:53:45;100236.66;;;-2.29;86.25
24620;BME280;12763;55.802;37.404;2023-11-19T03:56:11;100237.13;;;-2.35;86.00
24620;BME280;12763;55.802;37.404;2023-11-19T03:58:38;100240.81;;;-2.37;86.35
24620;BME280;12763;55.802;37.404;2023-11-19T04:01:05;100239.47;;;-2.31;86.79
24620;BME280;12763;55.802;37.404;2023-11-19T04:03:31;100240.09;;;-2.27;86.58
24620;BME280;12763;55.802;37.404;2023-11-19T04:05:56;100238.34;;;-2.28;86.17
24620;BME280;12763;55.802;37.404;2023-11-19T04:08:22;100232.69;;;-2.25;86.33
24620;BME280;12763;55.802;37.404;2023-11-19T04:10:48;100221.25;;;-2.29;85.87
24620;BME280;12763;55.802;37.404;2023-11-19T04:13:14;100213.06;;;-2.27;86.53
24620;BME280;12763;55.802;37.404;2023-11-19T04:15:40;100214.03;;;-2.28;86.21
24620;BME280;12763;55.802;37.404;2023-11-19T04:18:06;100215.03;;;-2.29;86.54
24620;BME280;12763;55.802;37.404;2023-11-19T04:20:32;100206.91;;;-2.29;86.43
24620;BME280;12763;55.802;37.404;2023-11-19T04:22:58;100207.63;;;-2.27;85.81
24620;BME280;12763;55.802;37.404;2023-11-19T04:25:26;100201.50;;;-2.29;86.45
24620;BME280;12763;55.802;37.404;2023-11-19T04:27:52;100209.09;;;-2.23;86.79
24620;BME280;12763;55.802;37.404;2023-11-19T04:30:18;100204.56;;;-2.23;85.83
24620;BME280;12763;55.802;37.404;2023-11-19T04:32:44;100199.28;;;-2.24;86.13
24620;BME280;12763;55.802;37.404;2023-11-19T04:35:10;100206.16;;;-2.31;86.07
24620;BME280;12763;55.802;37.404;2023-11-19T04:37:36;100205.56;;;-2.35;86.19
24620;BME280;12763;55.802;37.404;2023-11-19T04:40:03;100218.19;;;-2.47;86.63
24620;BME280;12763;55.802;37.404;2023-11-19T04:42:30;100210.06;;;-2.47;86.66
24620;BME280;12763;55.802;37.404;2023-11-19T04:44:56;100210.28;;;-2.61;87.82
24620;BME280;12763;55.802;37.404;2023-11-19T04:47:22;100215.94;;;-2.64;88.04
24620;BME280;12763;55.802;37.404;2023-11-19T04:49:48;100217.41;;;-2.71;88.66
24620;BME280;12763;55.802;37.404;2023-11-19T04:52:14;100228.72;;;-2.66;88.94
24620;BME280;12763;55.802;37.404;2023-11-19T04:54:43;100222.66;;;-2.69;89.77
24620;BME280;12763;55.802;37.404;2023-11-19T04:57:10;100225.88;;;-2.64;89.30
24620;BME280;12763;55.802;37.404;2023-11-19T04:59:39;100233.38;;;-2.57;88.96
24620;BME280;12763;55.802;37.404;2023-11-19T05:02:05;100228.13;;;-2.47;88.76
24620;BME280;12763;55.802;37.404;2023-11-19T05:04:31;100227.88;;;-2.55;88.80
24620;BME280;12763;55.802;37.404;2023-11-19T05:06:57;100215.94;;;-2.53;89.27
24620;BME280;12763;55.802;37.404;2023-11-19T05:09:23;100213.69;;;-2.70;90.08
24620;BME280;12763;55.802;37.404;2023-11-19T05:11:49;100222.97;;;-2.50;89.21
24620;BME280;12763;55.802;37.404;2023-11-19T05:14:14;100218.66;;;-2.53;89.49
24620;BME280;12763;55.802;37.404;2023-11-19T05:16:41;100229.63;;;-2.43;89.71
24620;BME280;12763;55.802;37.404;2023-11-19T05:19:07;100220.03;;;-2.36;89.30
24620;BME280;12763;55.802;37.404;2023-11-19T05:21:33;100223.13;;;-2.29;89.00
24620;BME280;12763;55.802;37.404;2023-11-19T05:24:00;100230.13;;;-2.27;88.59
24620;BME280;12763;55.802;37.404;2023-11-19T05:26:26;100225.84;;;-2.29;88.65
24620;BME280;12763;55.802;37.404;2023-11-19T05:28:51;100230.13;;;-2.27;88.34
24620;BME280;12763;55.802;37.404;2023-11-19T05:31:18;100220.53;;;-2.20;88.92
24620;BME280;12763;55.802;37.404;2023-11-19T05:33:44;100232.94;;;-2.28;88.92
24620;BME280;12763;55.802;37.404;2023-11-19T05:36:11;100234.69;;;-2.27;88.90
24620;BME280;12763;55.802;37.404;2023-11-19T05:38:38;100241.69;;;-2.14;87.65
24620;BME280;12763;55.802;37.404;2023-11-19T05:41:04;100238.50;;;-2.19;88.10
24620;BME280;12763;55.802;37.404;2023-11-19T05:43:31;100221.38;;;-2.42;86.59
24620;BME280;12763;55.802;37.404;2023-11-19T05:45:57;100233.06;;;-2.41;86.90
24620;BME280;12763;55.802;37.404;2023-11-19T05:48:25;100232.06;;;-2.29;86.92
24620;BME280;12763;55.802;37.404;2023-11-19T05:50:51;100232.22;;;-2.19;86.67
24620;BME280;12763;55.802;37.404;2023-11-19T05:53:17;100234.94;;;-2.08;86.74
24620;BME280;12763;55.802;37.404;2023-11-19T05:55:43;100237.03;;;-2.12;86.37
24620;BME280;12763;55.802;37.404;2023-11-19T05:58:24;100239.59;;;-2.21;86.64
24620;BME280;12763;55.802;37.404;2023-11-19T06:00:52;100235.66;;;-2.17;86.72
24620;BME280;12763;55.802;37.404;2023-11-19T06:03:18;100232.00;;;-2.05;86.48
24620;BME280;12763;55.802;37.404;2023-11-19T06:05:47;100238.81;;;-2.34;87.83
24620;BME280;12763;55.802;37.404;2023-11-19T06:08:14;100238.31;;;-2.51;87.71
24620;BME280;12763;55.802;37.404;2023-11-19T06:10:43;100229.28;;;-2.27;88.20
24620;BME280;12763;55.802;37.404;2023-11-19T06:13:12;100226.06;;;-2.32;88.20
24620;BME280;12763;55.802;37.404;2023-11-19T06:15:44;100220.66;;;-2.32;87.91
24620;BME280;12763;55.802;37.404;2023-11-19T06:18:10;100215.38;;;-2.23;87.63
24620;BME280;12763;55.802;37.404;2023-11-19T06:20:38;100214.50;;;-2.23;87.97
24620;BME280;12763;55.802;37.404;2023-11-19T06:23:04;100218.47;;;-2.27;87.43
24620;BME280;12763;55.802;37.404;2023-11-19T06:25:29;100218.81;;;-2.10;87.18
24620;BME280;12763;55.802;37.404;2023-11-19T06:27:55;100213.16;;;-1.96;86.89
24620;BME280;12763;55.802;37.404;2023-11-19T06:30:22;100221.28;;;-1.85;86.20
24620;BME280;12763;55.802;37.404;2023-11-19T06:32:48;100207.25;;;-1.79;85.47
24620;BME280;12763;55.802;37.404;2023-11-19T06:35:14;100208.28;;;-1.91;84.82
24620;BME280;12763;55.802;37.404;2023-11-19T06:37:40;100204.81;;;-1.82;85.65
24620;BME280;12763;55.802;37.404;2023-11-19T06:40:07;100218.69;;;-1.64;84.44
24620;BME280;12763;55.802;37.404;2023-11-19T06:42:35;100215.03;;;-1.74;83.57
24620;BME280;12763;55.802;37.404;2023-11-19T06:45:02;100206.28;;;-1.77;83.04
24620;BME280;12763;55.802;37.404;2023-11-19T06:47:31;100209.34;;;-1.71;82.96
24620;BME280;12763;55.802;37.404;2023-11-19T06:49:57;100206.28;;;-1.77;83.01
24620;BME280;12763;55.802;37.404;2023-11-19T06:52:22;100202.59;;;-1.88;82.52
24620;BME280;12763;55.802;37.404;2023-11-19T06:54:49;100203.44;;;-1.76;83.19
24620;BME280;12763;55.802;37.404;2023-11-19T06:57:15;100207.47;;;-1.59;83.09
24620;BME280;12763;55.802;37.404;2023-11-19T06:59:40;100210.44;;;-1.62;83.35
24620;BME280;12763;55.802;37.404;2023-11-19T07:02:06;100212.75;;;-1.47;83.45
24620;BME280;12763;55.802;37.404;2023-11-19T07:04:32;100212.78;;;-1.58;83.73
24620;BME280;12763;55.802;37.404;2023-11-19T07:07:01;100214.13;;;-1.52;83.59
24620;BME280;12763;55.802;37.404;2023-11-19T07:09:27;100215.09;;;-1.53;82.86
24620;BME280;12763;55.802;37.404;2023-11-19T07:11:53;100215.09;;;-1.53;82.89
24620;BME280;12763;55.802;37.404;2023-11-19T07:14:19;100212.00;;;-1.49;82.83
24620;BME280;12763;55.802;37.404;2023-11-19T07:16:45;100207.72;;;-1.51;82.29
24620;BME280;12763;55.802;37.404;2023-11-19T07:19:16;100209.53;;;-1.52;82.66
24620;BME280;12763;55.802;37.404;2023-11-19T07:21:42;100204.97;;;-1.40;81.73
24620;BME280;12763;55.802;37.404;2023-11-19T07:24:10;100200.19;;;-1.37;79.97
24620;BME280;12763;55.802;37.404;2023-11-19T07:26:46;100207.75;;;-1.20;79.23
24620;BME280;12763;55.802;37.404;2023-11-19T07:29:15;100207.19;;;-1.34;77.14
24620;BME280;12763;55.802;37.404;2023-11-19T07:31:44;100210.59;;;-1.21;77.03
24620;BME280;12763;55.802;37.404;2023-11-19T07:34:10;100207.53;;;-1.28;76.03
24620;BME280;12763;55.802;37.404;2023-11-19T07:36:37;100203.25;;;-0.98;76.30
24620;BME280;12763;55.802;37.404;2023-11-19T07:39:04;100209.13;;;-0.93;75.28
24620;BME280;12763;55.802;37.404;2023-11-19T07:41:31;100202.31;;;-1.08;74.74
24620;BME280;12763;55.802;37.404;2023-11-19T07:43:57;100200.94;;;-1.46;75.75
24620;BME280;12763;55.802;37.404;2023-11-19T07:46:23;100205.25;;;-1.54;76.74
24620;BME280;12763;55.802;37.404;2023-11-19T07:48:51;100208.22;;;-1.57;76.61
24620;BME280;12763;55.802;37.404;2023-11-19T07:51:17;100207.25;;;-1.13;76.59
24620;BME280;12763;55.802;37.404;2023-11-19T07:53:44;100207.06;;;-1.33;76.55
24620;BME280;12763;55.802;37.404;2023-11-19T07:56:10;100206.59;;;-1.49;75.33
24620;BME280;12763;55.802;37.404;2023-11-19T07:58:36;100201.81;;;-1.56;77.18
24620;BME280;12763;55.802;37.404;2023-11-19T08:01:02;100197.59;;;-1.38;74.81
24620;BME280;12763;55.802;37.404;2023-11-19T08:03:28;100199.91;;;-1.23;72.97
24620;BME280;12763;55.802;37.404;2023-11-19T08:05:56;100199.69;;;-1.42;68.40
24620;BME280;12763;55.802;37.404;2023-11-19T08:08:25;100198.69;;;-1.41;69.13
24620;BME280;12763;55.802;37.404;2023-11-19T08:10:51;100195.75;;;-1.38;68.55
24620;BME280;12763;55.802;37.404;2023-11-19T08:13:18;100199.84;;;-1.11;66.47
24620;BME280;12763;55.802;37.404;2023-11-19T08:15:45;100187.38;;;-1.35;69.52
24620;BME280;12763;55.802;37.404;2023-11-19T08:18:13;100184.28;;;-1.30;70.48
24620;BME280;12763;55.802;37.404;2023-11-19T08:20:39;100178.28;;;-1.45;68.28
24620;BME280;12763;55.802;37.404;2023-11-19T08:23:05;100193.84;;;-1.58;71.79
24620;BME280;12763;55.802;37.404;2023-11-19T08:25:31;100176.19;;;-1.41;72.85
24620;BME280;12763;55.802;37.404;2023-11-19T08:27:59;100177.63;;;-1.26;71.34
24620;BME280;12763;55.802;37.404;2023-11-19T08:30:26;100179.41;;;-1.15;68.56
24620;BME280;12763;55.802;37.404;2023-11-19T08:32:52;100176.19;;;-1.09;67.31
24620;BME280;12763;55.802;37.404;2023-11-19T08:35:18;100172.31;;;-0.96;66.53
24620;BME280;12763;55.802;37.404;2023-11-19T08:37:44;100175.88;;;-0.95;65.05
24620;BME280;12763;55.802;37.404;2023-11-19T08:40:12;100185.91;;;-1.07;65.04
24620;BME280;12763;55.802;37.404;2023-11-19T08:42:40;100183.09;;;-1.05;65.09
24620;BME280;12763;55.802;37.404;2023-11-19T08:45:07;100178.84;;;-0.98;66.17
24620;BME280;12763;55.802;37.404;2023-11-19T08:47:39;100173.19;;;-0.95;65.62
24620;BME280;12763;55.802;37.404;2023-11-19T08:50:06;100184.69;;;-0.82;65.86
24620;BME280;12763;55.802;37.404;2023-11-19T08:52:32;100178.91;;;-0.78;65.68
24620;BME280;12763;55.802;37.404;2023-11-19T08:54:58;100183.97;;;-0.84;66.37
24620;BME280;12763;55.802;37.404;2023-11-19T08:57:24;100186.16;;;-0.78;65.99
24620;BME280;12763;55.802;37.404;2023-11-19T08:59:50;100180.69;;;-0.67;66.16
24620;BME280;12763;55.802;37.404;2023-11-19T09:02:18;100178.06;;;-0.69;66.40
24620;BME280;12763;55.802;37.404;2023-11-19T09:04:45;100185.88;;;-0.96;66.79
24620;BME280;12763;55.802;37.404;2023-11-19T09:07:11;100178.25;;;-1.02;67.55
24620;BME280;12763;55.802;37.404;2023-11-19T09:09:38;100185.88;;;-1.28;67.98
24620;BME280;12763;55.802;37.404;2023-11-19T09:12:04;100182.38;;;-1.19;67.48
24620;BME280;12763;55.802;37.404;2023-11-19T09:14:30;100173.34;;;-1.40;67.01
24620;BME280;12763;55.802;37.404;2023-11-19T09:16:56;100173.34;;;-1.40;67.26
24620;BME280;12763;55.802;37.404;2023-11-19T09:19:22;100164.47;;;-1.31;67.34
24620;BME280;12763;55.802;37.404;2023-11-19T09:21:48;100161.03;;;-1.33;67.16
24620;BME280;12763;55.802;37.404;2023-11-19T09:24:15;100167.00;;;-1.50;68.49
24620;BME280;12763;55.802;37.404;2023-11-19T09:26:41;100153.44;;;-1.39;67.77
24620;BME280;12763;55.802;37.404;2023-11-19T09:29:08;100155.88;;;-1.36;67.21
24620;BME280;12763;55.802;37.404;2023-11-19T09:31:34;100150.94;;;-1.31;66.90
24620;BME280;12763;55.802;37.404;2023-11-19T09:34:01;100152.38;;;-1.27;66.52
24620;BME280;12763;55.802;37.404;2023-11-19T09:36:26;100136.53;;;-1.10;65.67
24620;BME280;12763;55.802;37.404;2023-11-19T09:38:52;100132.59;;;-1.06;65.00
24620;BME280;12763;55.802;37.404;2023-11-19T09:41:18;100121.09;;;-0.99;65.34
24620;BME280;12763;55.802;37.404;2023-11-19T09:43:45;100124.38;;;-0.54;64.68
24620;BME280;12763;55.802;37.404;2023-11-19T09:46:13;100117.25;;;-0.55;63.94
24620;BME280;12763;55.802;37.404;2023-11-19T09:48:42;100106.56;;;-0.47;63.45
24620;BME280;12763;55.802;37.404;2023-11-19T09:51:09;100110.75;;;-0.43;63.37
24620;BME280;12763;55.802;37.404;2023-11-19T09:53:37;100110.31;;;-0.48;63.89
24620;BME280;12763;55.802;37.404;2023-11-19T09:56:04;100108.91;;;-0.63;64.26
24620;BME280;12763;55.802;37.404;2023-11-19T09:58:31;100103.75;;;-0.66;65.42
24620;BME280;12763;55.802;37.404;2023-11-19T10:00:58;100102.97;;;-0.57;65.83
24620;BME280;12763;55.802;37.404;2023-11-19T10:03:36;100106.97;;;-0.61;64.76
24620;BME280;12763;55.802;37.404;2023-11-19T10:06:09;100098.56;;;-0.58;63.57
24620;BME280;12763;55.802;37.404;2023-11-19T10:08:39;100100.94;;;-0.65;63.07
24620;BME280;12763;55.802;37.404;2023-11-19T10:11:06;100097.06;;;-0.92;63.25
24620;BME280;12763;55.802;37.404;2023-11-19T10:13:35;100106.88;;;-0.71;63.19
24620;BME280;12763;55.802;37.404;2023-11-19T10:16:07;100104.63;;;-0.66;62.87
24620;BME280;12763;55.802;37.404;2023-11-19T10:18:34;100095.56;;;-0.55;62.52
24620;BME280;12763;55.802;37.404;2023-11-19T10:21:05;100082.56;;;-0.61;63.37
24620;BME280;12763;55.802;37.404;2023-11-19T10:26:20;100076.34;;;-0.73;64.61
24620;BME280;12763;55.802;37.404;2023-11-19T10:28:47;100077.53;;;-0.66;63.51
24620;BME280;12763;55.802;37.404;2023-11-19T10:31:14;100076.66;;;-0.66;63.07
24620;BME280;12763;55.802;37.404;2023-11-19T10:33:40;100071.53;;;-0.69;63.15
24620;BME280;12763;55.802;37.404;2023-11-19T10:36:07;100073.22;;;-0.68;63.48
24620;BME280;12763;55.802;37.404;2023-11-19T10:38:33;100079.00;;;-0.82;62.43
24620;BME280;12763;55.802;37.404;2023-11-19T10:40:59;100081.84;;;-1.04;63.66
24620;BME280;12763;55.802;37.404;2023-11-19T10:43:25;100077.56;;;-1.07;63.09
24620;BME280;12763;55.802;37.404;2023-11-19T10:45:52;100078.16;;;-1.03;61.99
24620;BME280;12763;55.802;37.404;2023-11-19T10:48:18;100077.28;;;-1.04;62.10
24620;BME280;12763;55.802;37.404;2023-11-19T10:50:45;100080.91;;;-0.73;61.67
24620;BME280;12763;55.802;37.404;2023-11-19T10:53:12;100083.81;;;-0.65;61.37
24620;BME280;12763;55.802;37.404;2023-11-19T10:55:41;100091.84;;;-0.84;63.33
24620;BME280;12763;55.802;37.404;2023-11-19T10:58:10;100097.59;;;-0.98;64.54
24620;BME280;12763;55.802;37.404;2023-11-19T11:00:54;100092.50;;;-1.12;62.58
24620;BME280;12763;55.802;37.404;2023-11-19T11:03:24;100076.63;;;-0.96;63.19
24620;BME280;12763;55.802;37.404;2023-11-19T11:05:52;100080.91;;;-0.73;62.28
24620;BME280;12763;55.802;37.404;2023-11-19T11:08:19;100074.16;;;-0.58;61.49
24620;BME280;12763;55.802;37.404;2023-11-19T11:10:54;100073.94;;;-0.36;61.08
24620;BME280;12763;55.802;37.404;2023-11-19T11:13:23;100072.25;;;-0.37;60.20
24620;BME280;12763;55.802;37.404;2023-11-19T11:15:56;100062.81;;;-0.33;60.12
24620;BME280;12763;55.802;37.404;2023-11-19T11:18:26;100072.16;;;-0.26;59.97
24620;BME280;12763;55.802;37.404;2023-11-19T11:21:13;100065.09;;;0.02;57.23
24620;BME280;12763;55.802;37.404;2023-11-19T11:29:09;100051.88;;;0.37;57.10
24620;BME280;12763;55.802;37.404;2023-11-19T11:34:53;100052.38;;;1.17;53.25
24620;BME280;12763;55.802;37.404;2023-11-19T11:37:30;100046.97;;;0.98;54.51
24620;BME280;12763;55.802;37.404;2023-11-19T11:39:57;100046.16;;;0.88;54.84
24620;BME280;12763;55.802;37.404;2023-11-19T11:45:09;100044.13;;;0.81;55.23
24620;BME280;12763;55.802;37.404;2023-11-19T11:50:15;100052.81;;;1.03;55.02
24620;BME280;12763;55.802;37.404;2023-11-19T11:55:34;100040.63;;;1.27;53.98
24620;BME280;12763;55.802;37.404;2023-11-19T11:58:03;100042.03;;;1.31;54.74
24620;BME280;12763;55.802;37.404;2023-11-19T12:00:31;100046.81;;;1.09;53.11
24620;BME280;12763;55.802;37.404;2023-11-19T12:02:59;100045.25;;;1.07;54.84
24620;BME280;12763;55.802;37.404;2023-11-19T12:05:25;100036.53;;;0.75;55.19
24620;BME280;12763;55.802;37.404;2023-11-19T12:08:04;100034.72;;;0.37;56.10
24620;BME280;12763;55.802;37.404;2023-11-19T12:10:43;100038.97;;;0.20;57.13
24620;BME280;12763;55.802;37.404;2023-11-19T12:13:10;100034.34;;;-0.18;57.74
24620;BME280;12763;55.802;37.404;2023-11-19T12:18:29;100047.13;;;-0.39;59.80
24620;BME280;12763;55.802;37.404;2023-11-19T12:20:55;100047.00;;;-0.68;60.71
24620;BME280;12763;55.802;37.404;2023-11-19T12:23:22;100050.75;;;-0.59;60.62
24620;BME280;12763;55.802;37.404;2023-11-19T12:25:49;100046.13;;;-0.68;61.27
24620;BME280;12763;55.802;37.404;2023-11-19T12:28:16;100047.22;;;-0.80;61.91
24620;BME280;12763;55.802;37.404;2023-11-19T12:30:46;100037.91;;;-0.87;61.77
24620;BME280;12763;55.802;37.404;2023-11-19T12:33:14;100034.66;;;-0.81;61.33
24620;BME280;12763;55.802;37.404;2023-11-19T12:35:43;100041.66;;;-0.99;62.18
24620;BME280;12763;55.802;37.404;2023-11-19T12:38:39;100038.50;;;-1.04;63.58
24620;BME280;12763;55.802;37.404;2023-11-19T12:41:06;100037.66;;;-1.26;63.72
24620;BME280;12763;55.802;37.404;2023-11-19T12:43:32;100031.13;;;-1.23;64.35
24620;BME280;12763;55.802;37.404;2023-11-19T12:46:00;100032.41;;;-1.59;65.36
24620;BME280;12763;55.802;37.404;2023-11-19T12:48:26;100027.41;;;-1.43;65.61
24620;BME280;12763;55.802;37.404;2023-11-19T12:50:55;100020.00;;;-1.41;64.92
24620;BME280;12763;55.802;37.404;2023-11-19T12:53:24;100030.38;;;-1.46;65.48
24620;BME280;12763;55.802;37.404;2023-11-19T12:55:51;100024.91;;;-1.35;65.67
24620;BME280;12763;55.802;37.404;2023-11-19T12:58:36;100015.53;;;-1.31;65.46
24620;BME280;12763;55.802;37.404;2023-11-19T13:01:04;100016.94;;;-1.36;66.27
24620;BME280;12763;55.802;37.404;2023-11-19T13:03:32;100019.84;;;-1.28;66.12
24620;BME280;12763;55.802;37.404;2023-11-19T13:06:07;100017.66;;;-1.34;66.70
24620;BME280;12763;55.802;37.404;2023-11-19T13:08:44;100019.91;;;-1.39;67.10